LGAV/ATH METAR and TAF weather

Enter ICAO airport designator
Station Type Date Time Source
LGAV METAR 2020/07/15 07:50 UTC NOAA

LGAV 150750Z 02014KT CAVOK 27/08 Q1015 NOSIG


Station Type Date Time Source
LGAV Decoded METAR 2020/07/15 07:50 UTC NOAA

Athens Eleftherios Venizelos International Airport, Greece (LGAV) 37-56N 023-56E
Jul 15, 2020 - 03:50 AM EDT / 2020.07.15 0750 UTC
Wind: from the NNE (020 degrees) at 16 MPH (14 KT):0
Visibility: greater than 7 mile(s):0
Temperature: 80 F (27 C)
Dew Point: 46 F (8 C)
Relative Humidity: 30%
Pressure (altimeter): 29.97 in. Hg (1015 hPa)
ob: LGAV 150750Z 02014KT CAVOK 27/08 Q1015 NOSIG
cycle: 8

Station Type Date Time Source
LGAV TAF 2020/07/15 06:12 UTC NOAA

TAF TAF LGAV 150500Z 1506/1606 33008KT 9999 FEW025
BECMG 1506/1508 03016KT
BECMG 1520/1522 VRB05KT

Example: see airport list